Time;durP1;ratioP1;P1;durP2;ratioP2;P2;SDS_P1;SDS_P2;PMS_P1;PMS_P2;Temp;Humidity;BMP_temperature;BMP_pressure;BME280_temperature;BME280_humidity;BME280_pressure;Samples;Min_cycle;Max_cycle;Signal;HPM_P1;HPM_P2
2023/02/08 00:01:10;;;;;;;24.60;19.83;;;2.50;99.90;;;;;;4950903;28;19921;-85
2023/02/08 00:03:36;;;;;;;23.47;20.67;;;2.50;99.90;;;;;;4934632;29;20393;-86
2023/02/08 00:06:03;;;;;;;26.20;20.80;;;2.50;99.90;;;;;;4950286;29;20040;-85
2023/02/08 00:08:29;;;;;;;25.43;21.90;;;2.60;99.90;;;;;;4935646;29;20034;-85
2023/02/08 00:10:56;;;;;;;26.13;21.17;;;2.70;99.90;;;;;;4949319;28;20042;-85
2023/02/08 00:13:22;;;;;;;24.60;20.90;;;2.70;99.90;;;;;;4952103;29;20384;-85
2023/02/08 00:15:48;;;;;;;24.40;21.57;;;2.70;99.90;;;;;;4950993;28;20047;-84
2023/02/08 00:18:14;;;;;;;26.87;21.33;;;2.60;99.90;;;;;;4932906;29;20063;-85
2023/02/08 00:20:41;;;;;;;24.23;20.57;;;2.50;99.90;;;;;;4958189;28;20034;-85
2023/02/08 00:23:07;;;;;;;22.83;20.43;;;2.50;99.90;;;;;;4951059;28;20043;-85
2023/02/08 00:25:33;;;;;;;23.80;20.97;;;2.50;99.90;;;;;;4934416;29;20066;-85
2023/02/08 00:27:59;;;;;;;28.63;22.80;;;2.50;99.90;;;;;;4938442;29;20039;-84
2023/02/08 00:30:26;;;;;;;29.03;22.73;;;2.50;99.90;;;;;;4936871;28;20031;-85
2023/02/08 00:32:52;;;;;;;25.90;21.67;;;2.60;99.90;;;;;;4938379;29;20035;-84
2023/02/08 00:35:18;;;;;;;27.57;23.37;;;2.70;99.90;;;;;;4954739;28;20050;-85
2023/02/08 00:37:44;;;;;;;27.97;21.83;;;2.70;99.90;;;;;;4940305;29;20031;-84
2023/02/08 00:40:10;;;;;;;27.13;22.73;;;2.80;99.90;;;;;;4955661;29;20039;-84
2023/02/08 00:42:36;;;;;;;25.63;22.93;;;2.80;99.90;;;;;;4953393;28;20054;-85
2023/02/08 00:45:03;;;;;;;26.47;22.13;;;2.90;99.90;;;;;;4954650;28;20036;-80
2023/02/08 00:47:29;;;;;;;25.83;21.93;;;2.90;99.90;;;;;;4953579;29;20028;-85
2023/02/08 00:49:55;;;;;;;28.20;22.70;;;3.00;99.90;;;;;;4938366;28;20035;-85
2023/02/08 00:52:21;;;;;;;27.93;22.63;;;3.10;99.90;;;;;;4922246;29;20061;-84
2023/02/08 00:54:47;;;;;;;27.40;22.87;;;3.20;99.90;;;;;;4952027;28;20039;-84
2023/02/08 00:57:14;;;;;;;26.00;22.60;;;3.10;99.90;;;;;;4952705;28;20038;-85
2023/02/08 00:59:40;;;;;;;26.87;23.00;;;2.90;99.90;;;;;;4938156;29;20046;-84
2023/02/08 01:02:06;;;;;;;26.33;22.20;;;2.80;99.90;;;;;;4952197;28;20488;-84
2023/02/08 01:04:32;;;;;;;28.47;23.83;;;2.80;99.90;;;;;;4938897;29;20034;-85
2023/02/08 01:06:58;;;;;;;27.47;22.47;;;2.80;99.90;;;;;;4955489;28;20461;-85
2023/02/08 01:09:24;;;;;;;26.10;23.33;;;2.90;99.90;;;;;;4953927;28;20508;-85
2023/02/08 01:11:50;;;;;;;26.20;22.53;;;2.90;99.90;;;;;;4954218;29;20027;-85
2023/02/08 01:14:16;;;;;;;26.67;22.80;;;2.80;99.90;;;;;;4954512;28;20477;-85
2023/02/08 01:16:42;;;;;;;29.27;23.30;;;2.70;99.90;;;;;;4952605;28;20050;-85
2023/02/08 01:19:09;;;;;;;28.00;22.17;;;2.60;99.90;;;;;;4938912;29;20035;-85
2023/02/08 01:21:38;;;;;;;27.97;22.73;;;2.60;99.90;;;;;;4928864;29;20042;-85
2023/02/08 01:24:04;;;;;;;26.03;22.83;;;2.50;99.90;;;;;;4937121;29;20110;-85
2023/02/08 01:26:30;;;;;;;27.40;21.87;;;2.70;99.90;;;;;;4931132;29;20031;-85
2023/02/08 01:28:56;;;;;;;25.77;22.87;;;2.70;99.90;;;;;;4953079;29;20104;-85
2023/02/08 01:31:28;;;;;;;28.23;23.43;;;2.60;99.90;;;;;;4954640;28;20485;-85
2023/02/08 01:33:55;;;;;;;26.70;23.40;;;2.60;99.90;;;;;;4953488;28;20035;-84
2023/02/08 01:36:21;;;;;;;28.97;24.03;;;2.60;99.90;;;;;;4937807;29;20036;-85
2023/02/08 01:38:48;;;;;;;32.33;23.73;;;2.60;99.90;;;;;;4919031;29;20036;-85
2023/02/08 01:41:16;;;;;;;27.23;22.67;;;2.70;99.90;;;;;;4953209;28;20058;-85
2023/02/08 01:44:06;;;;;;;27.73;22.77;;;2.80;99.90;;;;;;4938293;29;20023;-85
2023/02/08 01:46:34;;;;;;;25.50;22.50;;;2.90;99.90;;;;;;4938033;28;20042;-85
2023/02/08 01:49:48;;;;;;;26.47;22.87;;;2.80;99.90;;;;;;4920262;29;20073;-85
2023/02/08 01:52:17;;;;;;;27.73;22.73;;;2.90;99.90;;;;;;4928035;29;20051;-85
2023/02/08 01:55:08;;;;;;;27.27;23.03;;;3.00;99.90;;;;;;4933404;29;20086;-85
2023/02/08 01:57:34;;;;;;;25.10;22.43;;;3.10;99.90;;;;;;4907877;28;20043;-85
2023/02/08 02:00:06;;;;;;;27.27;22.87;;;3.10;99.90;;;;;;4920209;29;20046;-85
2023/02/08 02:02:32;;;;;;;29.53;23.50;;;3.10;99.90;;;;;;4937253;29;20035;-85
2023/02/08 02:04:58;;;;;;;31.40;23.90;;;3.00;99.90;;;;;;4953134;29;20039;-85
2023/02/08 02:07:26;;;;;;;25.47;22.77;;;2.90;99.90;;;;;;4937561;29;20030;-85
2023/02/08 02:09:57;;;;;;;26.27;21.70;;;2.60;99.90;;;;;;4952434;29;20039;-85
2023/02/08 02:12:23;;;;;;;27.60;23.23;;;2.50;99.90;;;;;;4952883;28;20039;-85
2023/02/08 02:14:49;;;;;;;25.37;22.67;;;2.30;99.90;;;;;;4937644;29;20050;-85
2023/02/08 02:17:16;;;;;;;31.20;23.03;;;2.30;99.90;;;;;;4919836;29;20036;-85
2023/02/08 02:20:07;;;;;;;29.63;23.07;;;2.20;99.90;;;;;;4936923;29;20034;-85
2023/02/08 02:22:56;;;;;;;26.60;21.93;;;2.10;99.90;;;;;;4951026;28;20031;-85
2023/02/08 02:25:28;;;;;;;25.47;21.33;;;2.00;99.90;;;;;;4908762;29;20212;-85
2023/02/08 02:27:59;;;;;;;26.73;22.90;;;2.00;99.90;;;;;;4919681;29;20063;-85
2023/02/08 02:31:24;;;;;;;27.00;22.77;;;2.00;99.90;;;;;;4920808;28;20044;-85
2023/02/08 02:34:01;;;;;;;32.23;21.70;;;2.20;99.90;;;;;;4914263;29;20032;-85
2023/02/08 02:36:49;;;;;;;27.60;22.43;;;2.30;99.90;;;;;;4913363;29;20526;-86
2023/02/08 02:39:40;;;;;;;26.33;23.53;;;2.30;99.90;;;;;;4897353;29;20044;-85
2023/02/08 02:45:34;;;;;;;27.33;22.45;;;2.50;99.90;;;;;;4901494;29;20047;-85
2023/02/08 02:48:06;;;;;;;28.20;23.60;;;2.60;99.90;;;;;;4913111;29;20401;-85
2023/02/08 02:50:43;;;;;;;26.30;22.40;;;2.50;99.90;;;;;;4872684;29;20485;-85
2023/02/08 02:53:19;;;;;;;27.13;24.27;;;2.20;99.90;;;;;;4897304;29;20047;-85
2023/02/08 02:55:55;;;;;;;25.77;23.00;;;2.10;99.90;;;;;;4882327;29;20060;-85
2023/02/08 02:58:21;;;;;;;26.00;22.63;;;2.10;99.90;;;;;;4897439;29;20516;-85
2023/02/08 03:00:54;;;;;;;30.00;24.50;;;2.00;99.90;;;;;;4893235;29;20047;-85
2023/02/08 03:03:25;;;;;;;29.87;23.87;;;2.00;99.90;;;;;;4893611;29;20054;-86
2023/02/08 03:05:53;;;;;;;32.50;25.67;;;1.90;99.90;;;;;;4921991;28;20058;-85
2023/02/08 03:08:30;;;;;;;26.87;23.00;;;1.90;99.90;;;;;;4928514;28;20089;-85
2023/02/08 03:11:11;;;;;;;29.00;23.67;;;1.90;99.90;;;;;;4951468;28;20535;-85
2023/02/08 03:13:43;;;;;;;32.13;28.52;;;1.70;99.90;;;;;;4949809;29;20484;-85
2023/02/08 03:16:19;;;;;;;32.17;26.53;;;1.90;99.90;;;;;;4937986;29;20420;-85
2023/02/08 03:19:00;;;;;;;31.20;25.63;;;1.80;99.90;;;;;;4950317;29;20039;-85
2023/02/08 03:21:47;;;;;;;30.73;27.45;;;1.80;99.90;;;;;;4957462;28;20035;-84
2023/02/08 03:24:20;;;;;;;29.43;26.30;;;1.80;99.90;;;;;;4954271;28;20035;-85
2023/02/08 03:27:12;;;;;;;34.53;27.83;;;1.80;99.90;;;;;;4951847;29;20035;-85
2023/02/08 03:30:03;;;;;;;30.33;27.07;;;1.80;99.90;;;;;;4950550;29;20231;-85
2023/02/08 03:32:54;;;;;;;36.25;27.50;;;1.70;99.90;;;;;;4936005;29;20065;-85
2023/02/08 03:35:27;;;;;;;31.93;28.53;;;1.70;99.90;;;;;;4937585;28;20054;-85
2023/02/08 03:37:57;;;;;;;31.63;28.13;;;1.70;99.90;;;;;;4951467;29;20027;-85
2023/02/08 03:40:29;;;;;;;32.63;29.13;;;1.80;99.90;;;;;;4933283;29;20051;-86
2023/02/08 03:42:56;;;;;;;33.53;28.83;;;1.90;99.90;;;;;;4931196;29;20034;-86
2023/02/08 03:45:25;;;;;;;31.90;28.37;;;2.00;99.90;;;;;;4948050;28;20027;-85
2023/02/08 03:47:52;;;;;;;32.70;29.20;;;2.00;99.90;;;;;;4930237;29;20036;-85
2023/02/08 03:50:18;;;;;;;33.30;28.80;;;1.90;99.90;;;;;;4950851;29;20428;-85
2023/02/08 03:52:45;;;;;;;34.20;30.70;;;1.90;99.90;;;;;;4951544;28;20035;-85
2023/02/08 03:55:14;;;;;;;32.50;29.10;;;2.00;99.90;;;;;;4936276;29;20043;-84
2023/02/08 03:57:47;;;;;;;34.50;30.23;;;2.00;99.90;;;;;;4951094;28;20473;-85
2023/02/08 04:00:14;;;;;;;32.43;28.93;;;2.00;99.90;;;;;;4936846;28;20034;-85
2023/02/08 04:02:55;;;;;;;34.30;30.60;;;2.00;99.90;;;;;;4950765;28;20034;-85
2023/02/08 04:05:22;;;;;;;35.80;31.98;;;1.90;99.90;;;;;;4940469;29;20027;-85
2023/02/08 04:07:49;;;;;;;34.50;30.80;;;1.90;99.90;;;;;;4956615;29;20043;-85
2023/02/08 04:10:15;;;;;;;33.87;30.30;;;1.80;99.90;;;;;;4939073;29;20039;-85
2023/02/08 04:12:42;;;;;;;35.03;31.43;;;1.80;99.90;;;;;;4937967;29;20043;-85
2023/02/08 04:15:08;;;;;;;32.43;27.83;;;1.90;99.90;;;;;;4953945;28;20039;-84
2023/02/08 04:17:34;;;;;;;34.00;30.13;;;2.00;99.90;;;;;;4954738;29;20031;-85
2023/02/08 04:20:00;;;;;;;36.50;31.23;;;2.00;99.90;;;;;;4955849;28;20031;-85
2023/02/08 04:22:26;;;;;;;32.57;29.03;;;1.90;99.90;;;;;;4957413;28;20465;-85
2023/02/08 04:24:52;;;;;;;34.67;30.70;;;1.90;99.90;;;;;;4938785;29;20035;-85
2023/02/08 04:27:19;;;;;;;34.10;30.30;;;1.80;99.90;;;;;;4947015;29;20054;-85
2023/02/08 04:29:45;;;;;;;35.27;29.80;;;1.80;99.90;;;;;;4955472;29;20024;-85
2023/02/08 04:32:12;;;;;;;32.33;28.00;;;1.70;99.90;;;;;;4956026;28;20396;-85
2023/02/08 04:34:38;;;;;;;32.50;28.47;;;1.60;99.90;;;;;;4951513;29;20055;-85
2023/02/08 04:37:05;;;;;;;32.83;29.20;;;1.60;99.90;;;;;;4921495;29;20039;-87
2023/02/08 04:39:31;;;;;;;34.40;28.07;;;1.60;99.90;;;;;;4946003;28;20039;-84
2023/02/08 04:41:57;;;;;;;31.60;28.23;;;1.60;99.90;;;;;;4938196;29;20047;-84
2023/02/08 04:44:23;;;;;;;33.20;27.03;;;1.50;99.90;;;;;;4955986;28;20039;-83
2023/02/08 04:46:49;;;;;;;38.50;28.23;;;1.40;99.90;;;;;;4955255;28;20428;-84
2023/02/08 04:49:15;;;;;;;36.23;28.40;;;1.40;99.90;;;;;;4938358;29;20035;-86
2023/02/08 04:51:42;;;;;;;34.40;28.50;;;1.50;99.90;;;;;;4956346;28;20055;-87
2023/02/08 04:54:08;;;;;;;33.67;28.07;;;1.60;99.90;;;;;;4953588;28;20098;-87
2023/02/08 04:56:35;;;;;;;33.60;27.07;;;1.50;99.90;;;;;;4955391;29;20039;-85
2023/02/08 04:59:01;;;;;;;37.43;27.67;;;1.60;99.90;;;;;;4937154;29;20050;-86
2023/02/08 05:01:27;;;;;;;35.37;27.73;;;1.60;99.90;;;;;;4953081;28;20050;-85
2023/02/08 05:03:53;;;;;;;38.57;28.40;;;1.50;99.90;;;;;;4956525;28;20233;-86
2023/02/08 05:06:19;;;;;;;33.90;26.87;;;1.50;99.90;;;;;;4954552;29;20042;-86
2023/02/08 05:08:45;;;;;;;41.50;28.43;;;1.50;99.90;;;;;;4938634;29;20046;-86
2023/02/08 05:11:11;;;;;;;33.73;28.60;;;1.50;99.90;;;;;;4955721;28;20035;-86
2023/02/08 05:13:37;;;;;;;34.70;28.90;;;1.40;99.90;;;;;;4938668;28;20043;-85
2023/02/08 05:16:03;;;;;;;37.83;29.60;;;1.30;99.90;;;;;;4954681;28;20050;-86
2023/02/08 05:18:30;;;;;;;34.43;26.70;;;1.30;99.90;;;;;;4938170;29;20362;-86
2023/02/08 05:20:57;;;;;;;31.73;27.33;;;1.30;99.90;;;;;;4946588;28;20053;-86
2023/02/08 05:23:23;;;;;;;33.97;26.60;;;1.30;99.90;;;;;;4932950;29;20043;-86
2023/02/08 05:25:49;;;;;;;35.17;26.23;;;1.30;99.90;;;;;;4955127;29;20035;-86
2023/02/08 05:28:15;;;;;;;35.20;26.00;;;1.40;99.90;;;;;;4936731;29;20054;-86
2023/02/08 05:30:41;;;;;;;34.60;27.80;;;1.50;99.90;;;;;;4922370;29;20396;-86
2023/02/08 05:33:07;;;;;;;37.70;28.97;;;1.60;99.90;;;;;;4955838;28;20035;-86
2023/02/08 05:35:33;;;;;;;35.70;28.07;;;1.50;99.90;;;;;;4953696;29;20416;-86
2023/02/08 05:37:59;;;;;;;36.73;28.77;;;1.40;99.90;;;;;;4938081;29;20054;-86
2023/02/08 05:40:26;;;;;;;37.17;27.87;;;1.50;99.90;;;;;;4956092;29;20039;-85
2023/02/08 05:42:52;;;;;;;37.70;26.80;;;1.50;99.90;;;;;;4938106;29;20054;-86
2023/02/08 05:45:18;;;;;;;35.67;28.93;;;1.50;99.90;;;;;;4955311;28;20035;-87
2023/02/08 05:47:46;;;;;;;40.93;28.50;;;1.60;99.90;;;;;;4954358;28;20024;-86
2023/02/08 05:50:12;;;;;;;35.13;27.27;;;1.70;99.90;;;;;;4938864;29;20469;-86
2023/02/08 05:52:39;;;;;;;36.07;27.40;;;1.60;99.90;;;;;;4937840;29;20035;-87
2023/02/08 05:55:05;;;;;;;38.03;28.20;;;1.60;99.90;;;;;;4954617;29;20043;-86
2023/02/08 05:57:31;;;;;;;34.77;27.00;;;1.50;99.90;;;;;;4935954;28;20063;-86
2023/02/08 05:59:58;;;;;;;32.00;26.20;;;1.40;99.90;;;;;;4919308;29;20074;-87
2023/02/08 06:02:24;;;;;;;34.80;26.47;;;1.40;99.90;;;;;;4926796;29;20054;-86
2023/02/08 06:04:50;;;;;;;35.23;27.50;;;1.50;99.90;;;;;;4938356;29;20038;-86
2023/02/08 06:07:16;;;;;;;35.23;27.93;;;1.50;99.90;;;;;;4919274;29;20044;-86
2023/02/08 06:09:42;;;;;;;33.67;27.60;;;1.50;99.90;;;;;;4935336;29;20039;-86
2023/02/08 06:12:08;;;;;;;33.57;26.43;;;1.60;99.90;;;;;;4943988;29;20046;-86
2023/02/08 06:14:34;;;;;;;31.40;26.60;;;1.50;99.90;;;;;;4955421;28;20042;-86
2023/02/08 06:17:00;;;;;;;34.70;27.03;;;1.50;99.90;;;;;;4953651;28;20051;-86
2023/02/08 06:19:26;;;;;;;35.37;27.97;;;1.60;99.90;;;;;;4938261;29;20035;-86
2023/02/08 06:21:54;;;;;;;34.20;26.70;;;1.60;99.90;;;;;;4937358;28;20473;-86
2023/02/08 06:24:20;;;;;;;34.97;25.63;;;1.40;99.90;;;;;;4921366;29;20039;-85
2023/02/08 06:26:47;;;;;;;35.53;26.07;;;1.40;99.90;;;;;;4953170;29;20054;-86
2023/02/08 06:29:13;;;;;;;36.77;27.17;;;1.40;99.90;;;;;;4937235;29;20047;-86
2023/02/08 06:31:39;;;;;;;33.50;26.77;;;1.40;99.90;;;;;;4952139;28;20039;-85
2023/02/08 06:34:05;;;;;;;32.63;25.47;;;1.70;99.90;;;;;;4937134;29;20062;-86
2023/02/08 06:36:31;;;;;;;34.57;25.93;;;1.80;99.90;;;;;;4955051;28;20047;-84
2023/02/08 06:38:57;;;;;;;38.33;28.20;;;1.70;99.90;;;;;;4937716;28;20050;-86
2023/02/08 06:41:24;;;;;;;38.70;27.27;;;1.50;99.90;;;;;;4952345;29;20039;-86
2023/02/08 06:43:50;;;;;;;38.60;27.63;;;1.60;99.90;;;;;;4953657;29;20031;-81
2023/02/08 06:46:16;;;;;;;35.27;27.70;;;1.50;99.90;;;;;;4934696;29;20043;-86
2023/02/08 06:48:42;;;;;;;35.73;27.13;;;1.30;99.90;;;;;;4955143;28;20046;-86
2023/02/08 06:51:08;;;;;;;34.57;26.73;;;1.20;99.90;;;;;;4952251;29;20055;-86
2023/02/08 06:53:34;;;;;;;39.20;28.30;;;1.20;99.90;;;;;;4937615;29;20039;-86
2023/02/08 06:56:00;;;;;;;38.73;27.77;;;1.10;99.90;;;;;;4952648;28;20050;-86
2023/02/08 06:58:26;;;;;;;40.23;26.80;;;1.20;99.90;;;;;;4936968;29;20396;-86
2023/02/08 07:00:52;;;;;;;39.60;28.70;;;1.10;99.90;;;;;;4952940;28;20047;-86
2023/02/08 07:03:19;;;;;;;37.20;27.20;;;0.90;99.90;;;;;;4953474;29;20384;-86
2023/02/08 07:05:45;;;;;;;40.13;27.70;;;0.90;99.90;;;;;;4954642;29;20023;-87
2023/02/08 07:08:11;;;;;;;46.37;26.70;;;0.90;99.90;;;;;;4937553;29;20481;-86
2023/02/08 07:10:38;;;;;;;38.03;25.87;;;0.90;99.90;;;;;;4953867;29;20038;-86
2023/02/08 07:13:04;;;;;;;39.67;27.67;;;0.80;99.90;;;;;;4937115;29;20035;-86
2023/02/08 07:15:31;;;;;;;43.60;28.13;;;0.90;99.90;;;;;;4936519;28;20035;-86
2023/02/08 07:17:57;;;;;;;39.90;28.27;;;0.90;99.90;;;;;;4953411;29;20366;-86
2023/02/08 07:20:23;;;;;;;37.07;27.20;;;0.90;99.90;;;;;;4956556;28;20027;-86
2023/02/08 07:22:49;;;;;;;41.37;26.73;;;0.90;99.90;;;;;;4956922;28;20038;-86
2023/02/08 07:25:16;;;;;;;37.60;27.73;;;1.00;99.90;;;;;;4967324;28;20381;-86
2023/02/08 07:27:42;;;;;;;37.47;27.50;;;1.20;99.90;;;;;;4957103;28;20035;-90
2023/02/08 07:30:08;;;;;;;40.33;27.40;;;1.20;99.90;;;;;;4954830;28;20039;-92
2023/02/08 07:32:34;;;;;;;40.07;27.50;;;1.20;99.90;;;;;;4957166;28;20031;-86
2023/02/08 07:35:01;;;;;;;40.77;28.10;;;1.20;99.90;;;;;;4969661;28;20019;-89
2023/02/08 07:37:27;;;;;;;39.93;27.03;;;1.40;99.90;;;;;;4927356;29;20043;-89
2023/02/08 07:39:53;;;;;;;40.40;27.80;;;1.50;99.90;;;;;;4949012;29;20035;-89
2023/02/08 07:42:19;;;;;;;36.13;27.27;;;1.50;99.90;;;;;;4960707;29;20031;-92
2023/02/08 07:44:45;;;;;;;42.73;27.97;;;1.30;99.90;;;;;;4955834;28;20038;-89
2023/02/08 07:47:11;;;;;;;38.93;26.80;;;1.20;99.90;;;;;;4958785;28;20051;-86
2023/02/08 07:49:37;;;;;;;40.50;28.30;;;1.10;99.90;;;;;;4955327;28;20477;-88
2023/02/08 07:52:03;;;;;;;48.67;29.70;;;1.30;99.90;;;;;;4955186;28;20050;-85
2023/02/08 07:54:29;;;;;;;40.37;29.83;;;1.50;99.90;;;;;;4957195;29;20027;-83
2023/02/08 07:56:55;;;;;;;42.40;30.30;;;1.60;99.90;;;;;;4956458;28;20047;-87
2023/02/08 07:59:22;;;;;;;46.23;29.83;;;1.70;99.90;;;;;;4960516;29;20487;-91
2023/02/08 08:01:48;;;;;;;38.70;28.37;;;1.60;99.90;;;;;;4942412;29;20038;-90
2023/02/08 08:04:14;;;;;;;38.40;27.93;;;1.40;99.90;;;;;;4961609;28;20465;-90
2023/02/08 08:06:40;;;;;;;39.57;28.90;;;1.20;99.90;;;;;;4923362;29;20042;-90
2023/02/08 08:09:06;;;;;;;40.47;29.13;;;1.20;99.90;;;;;;4946656;29;20047;-90
2023/02/08 08:11:32;;;;;;;39.27;28.37;;;1.10;99.90;;;;;;4963623;28;20039;-93
2023/02/08 08:13:58;;;;;;;41.67;29.67;;;1.10;99.90;;;;;;4968390;28;20035;-92
2023/02/08 08:16:24;;;;;;;40.30;28.67;;;1.20;99.90;;;;;;4941336;28;20066;-87
2023/02/08 08:18:50;;;;;;;43.80;28.93;;;1.30;99.90;;;;;;4955550;29;20027;-87
2023/02/08 08:21:17;;;;;;;46.47;30.37;;;1.30;99.90;;;;;;4956967;28;20039;-88
2023/02/08 08:23:43;;;;;;;39.30;28.73;;;1.40;99.90;;;;;;4960318;29;20034;-91
2023/02/08 08:26:14;;;;;;;42.97;29.03;;;1.40;99.90;;;;;;4957714;28;20039;-89
2023/02/08 08:28:40;;;;;;;39.78;28.58;;;1.40;99.90;;;;;;4943052;29;20134;-88
2023/02/08 08:31:10;;;;;;;42.03;28.40;;;1.50;99.90;;;;;;4945737;28;20028;-91
2023/02/08 08:33:36;;;;;;;40.60;29.27;;;1.50;99.90;;;;;;4943422;29;20065;-84
2023/02/08 08:36:03;;;;;;;35.40;26.50;;;1.60;99.90;;;;;;4957088;29;20043;-87
2023/02/08 08:38:29;;;;;;;33.67;30.10;;;1.50;99.90;;;;;;4962330;29;20036;-92
2023/02/08 08:40:55;;;;;;;41.40;33.73;;;1.50;99.90;;;;;;4962673;28;20023;-87
2023/02/08 08:43:21;;;;;;;40.53;34.50;;;1.50;99.90;;;;;;4959455;28;20039;-88
2023/02/08 08:45:47;;;;;;;39.10;32.70;;;1.60;99.90;;;;;;4959051;28;20028;-89
2023/02/08 08:48:13;;;;;;;44.33;37.47;;;1.70;99.90;;;;;;4959095;28;20043;-90
2023/02/08 08:50:41;;;;;;;44.37;37.20;;;1.70;99.90;;;;;;4961666;28;20110;-89
2023/02/08 08:53:08;;;;;;;40.50;33.40;;;1.80;99.90;;;;;;4947347;29;20034;-92
2023/02/08 08:55:34;;;;;;;38.37;29.13;;;1.90;99.90;;;;;;4961916;28;20488;-89
2023/02/08 08:58:00;;;;;;;42.57;32.57;;;2.10;99.90;;;;;;4944846;29;20047;-89
2023/02/08 09:00:26;;;;;;;45.73;30.37;;;2.30;99.90;;;;;;4955717;28;20519;-84
2023/02/08 09:02:52;;;;;;;48.63;31.10;;;2.50;99.90;;;;;;4954889;29;20128;-88
2023/02/08 09:05:18;;;;;;;40.93;28.80;;;2.60;99.90;;;;;;4955627;29;20521;-88
2023/02/08 09:07:44;;;;;;;41.67;27.63;;;2.80;99.90;;;;;;4955071;28;20031;-89
2023/02/08 09:10:11;;;;;;;36.43;27.03;;;2.80;99.90;;;;;;4947712;29;20039;-86
2023/02/08 09:12:37;;;;;;;34.10;26.03;;;3.00;99.90;;;;;;4953962;28;20039;-88
2023/02/08 09:15:04;;;;;;;36.37;25.80;;;3.20;99.90;;;;;;4959193;28;20031;-86
2023/02/08 09:17:30;;;;;;;37.67;23.60;;;3.30;99.90;;;;;;4957571;29;20087;-87
2023/02/08 09:19:56;;;;;;;24.87;20.93;;;3.30;99.90;;;;;;4940555;28;20058;-87
2023/02/08 09:22:22;;;;;;;35.60;25.80;;;3.20;99.90;;;;;;4977467;28;20031;-86
2023/02/08 09:24:48;;;;;;;36.50;26.87;;;3.50;99.90;;;;;;4974951;28;20376;-87
2023/02/08 09:27:14;;;;;;;33.57;26.00;;;3.70;99.90;;;;;;4953260;29;20401;-88
2023/02/08 09:29:40;;;;;;;32.77;25.40;;;3.90;99.90;;;;;;4935833;29;20047;-87
2023/02/08 09:32:06;;;;;;;32.20;25.77;;;4.40;99.90;;;;;;4943051;28;20039;-80
2023/02/08 09:34:32;;;;;;;30.73;25.07;;;4.50;99.90;;;;;;4954705;29;20473;-84
2023/02/08 09:36:58;;;;;;;28.87;22.43;;;4.50;99.90;;;;;;4936656;29;20050;-83
2023/02/08 09:39:25;;;;;;;26.27;22.10;;;4.40;99.90;;;;;;4955316;29;20477;-82
2023/02/08 09:42:14;;;;;;;29.03;23.90;;;4.30;99.90;;;;;;4937997;29;20020;-84
2023/02/08 09:44:53;;;;;;;27.63;24.07;;;4.20;99.90;;;;;;4936848;29;20035;-82
2023/02/08 09:47:25;;;;;;;30.97;25.00;;;4.30;99.90;;;;;;4938966;28;20035;-82
2023/02/08 09:50:00;;;;;;;13.93;12.83;;;4.50;99.90;;;;;;4953699;29;20054;-82
2023/02/08 09:52:48;;;;;;;30.03;24.60;;;4.60;99.90;;;;;;4959010;28;20050;-90
2023/02/08 09:55:16;;;;;;;30.00;24.20;;;4.60;99.90;;;;;;4901406;29;20032;-91
2023/02/08 09:57:42;;;;;;;31.03;25.13;;;4.80;99.90;;;;;;4915460;29;20057;-91
2023/02/08 10:00:14;;;;;;;33.53;26.77;;;4.80;99.90;;;;;;4917479;29;20553;-90
2023/02/08 10:02:40;;;;;;;34.23;26.37;;;4.80;99.90;;;;;;4916028;29;20040;-92
2023/02/08 10:05:10;;;;;;;25.80;23.07;;;5.00;99.90;;;;;;4915236;29;20044;-92
2023/02/08 10:07:36;;;;;;;31.33;25.63;;;4.90;99.90;;;;;;4898966;29;20055;-90
2023/02/08 10:10:05;;;;;;;29.57;23.83;;;5.00;99.90;;;;;;4897844;29;20040;-92
2023/02/08 10:13:01;;;;;;;32.23;26.50;;;5.00;99.90;;;;;;4900645;29;20486;-93
2023/02/08 10:15:33;;;;;;;29.93;26.03;;;5.10;99.90;;;;;;4902717;29;20031;-91
2023/02/08 10:18:26;;;;;;;32.73;26.23;;;5.20;99.90;;;;;;4915504;29;20056;-93
2023/02/08 10:21:01;;;;;;;32.33;26.07;;;5.20;99.90;;;;;;4912820;29;20044;-93
2023/02/08 10:23:27;;;;;;;30.23;25.83;;;5.30;99.90;;;;;;4901047;29;20409;-90
2023/02/08 10:26:08;;;;;;;29.23;25.10;;;5.60;99.90;;;;;;4916807;29;20461;-92
2023/02/08 10:28:34;;;;;;;29.58;23.13;;;5.60;99.90;;;;;;4919324;29;20537;-91
2023/02/08 10:31:40;;;;;;;28.60;23.93;;;5.40;99.90;;;;;;4903485;29;20047;-92
2023/02/08 10:34:18;;;;;;;26.47;22.27;;;5.50;99.90;;;;;;4955254;28;20046;-88
2023/02/08 10:36:44;;;;;;;30.63;24.17;;;5.60;99.90;;;;;;4957570;29;20043;-92
2023/02/08 10:39:20;;;;;;;22.37;19.00;;;5.60;99.90;;;;;;4924391;29;20046;-89
2023/02/08 10:41:46;;;;;;;28.87;21.07;;;5.60;99.90;;;;;;4940742;29;20047;-89
2023/02/08 10:44:41;;;;;;;28.23;23.13;;;5.60;99.90;;;;;;4939288;29;20047;-92
2023/02/08 10:47:21;;;;;;;29.80;25.80;;;5.70;99.90;;;;;;4953610;28;20039;-88
2023/02/08 10:50:02;;;;;;;31.93;24.17;;;5.90;99.90;;;;;;4940749;29;20031;-89
2023/02/08 10:52:29;;;;;;;24.70;21.90;;;6.30;99.90;;;;;;4942637;29;20062;-89
2023/02/08 10:54:58;;;;;;;29.40;26.00;;;6.20;99.90;;;;;;4938714;29;20477;-88
2023/02/08 10:57:33;;;;;;;30.13;24.70;;;6.10;99.90;;;;;;4953500;28;20047;-92
2023/02/08 11:00:00;;;;;;;30.97;25.17;;;6.20;99.90;;;;;;4948011;28;20023;-87
2023/02/08 11:02:29;;;;;;;29.27;25.67;;;6.20;99.90;;;;;;4952161;28;20086;-93
2023/02/08 11:05:05;;;;;;;34.13;26.50;;;6.30;99.90;;;;;;4925727;28;20077;-92
2023/02/08 11:07:32;;;;;;;30.40;25.57;;;6.50;99.90;;;;;;4956796;28;20031;-93
2023/02/08 11:10:24;;;;;;;29.93;24.33;;;6.70;99.90;;;;;;4943680;29;20046;-90
2023/02/08 11:13:05;;;;;;;29.30;26.02;;;6.70;99.90;;;;;;4954356;29;20047;-92
2023/02/08 11:15:47;;;;;;;34.28;26.42;;;6.90;99.90;;;;;;4955133;28;20038;-93
2023/02/08 11:18:34;;;;;;;28.57;25.40;;;7.00;99.90;;;;;;4960309;28;20524;-94
2023/02/08 11:21:49;;;;;;;34.40;27.43;;;7.10;99.90;;;;;;4933393;28;20034;-90
2023/02/08 11:24:21;;;;;;;31.80;26.07;;;7.40;99.90;;;;;;4923959;29;20058;-89
2023/02/08 11:26:48;;;;;;;30.02;25.83;;;7.10;99.90;;;;;;4946401;29;20381;-92
2023/02/08 11:29:15;;;;;;;30.38;25.45;;;7.20;99.90;;;;;;4955648;29;20031;-94
2023/02/08 11:32:17;;;;;;;29.00;23.87;;;7.40;99.90;;;;;;4951196;28;20082;-91
2023/02/08 11:34:43;;;;;;;20.67;18.75;;;7.40;99.90;;;;;;4949864;29;20023;-92
2023/02/08 11:37:17;;;;;;;27.38;24.52;;;7.40;99.90;;;;;;4920345;29;20067;-88
2023/02/08 11:39:50;;;;;;;29.23;25.25;;;7.40;99.90;;;;;;4943727;29;20060;-90
2023/02/08 11:42:27;;;;;;;27.63;24.70;;;7.50;99.90;;;;;;4938610;28;20381;-91
2023/02/08 11:44:54;;;;;;;28.42;23.65;;;7.60;99.90;;;;;;4953047;28;20031;-90
2023/02/08 11:47:32;;;;;;;27.50;24.67;;;7.40;99.90;;;;;;4936505;29;20042;-89
2023/02/08 11:50:05;;;;;;;29.08;25.98;;;7.70;99.90;;;;;;4937363;29;20038;-89
2023/02/08 11:52:39;;;;;;;20.83;18.92;;;7.90;99.90;;;;;;4920813;29;20523;-90
2023/02/08 11:55:15;;;;;;;22.90;20.60;;;7.70;99.90;;;;;;4935626;29;20023;-91
2023/02/08 11:57:57;;;;;;;17.90;16.50;;;7.50;99.90;;;;;;4949719;29;20043;-91
2023/02/08 12:00:25;;;;;;;26.50;23.67;;;7.50;99.90;;;;;;4921607;28;20043;-92
2023/02/08 12:03:03;;;;;;;16.13;14.88;;;7.50;99.90;;;;;;4954042;28;20389;-92
2023/02/08 12:05:44;;;;;;;24.92;22.58;;;7.60;99.90;;;;;;4937875;29;20035;-92
2023/02/08 12:08:14;;;;;;;;;;;7.60;99.90;;;;;;4954748;29;20035;-92
2023/02/08 12:11:01;;;;;;;27.73;23.95;;;7.70;99.90;;;;;;4968185;28;19906;-93
2023/02/08 12:13:33;;;;;;;26.93;24.03;;;7.70;99.90;;;;;;4957353;28;20027;-91
2023/02/08 12:16:14;;;;;;;25.20;22.58;;;7.80;99.90;;;;;;4953526;28;20473;-92
2023/02/08 12:19:00;;;;;;;28.97;26.17;;;8.00;99.90;;;;;;4947722;28;20067;-89
2023/02/08 12:21:32;;;;;;;28.23;25.17;;;8.40;99.90;;;;;;4933071;28;20046;-91
2023/02/08 12:24:04;;;;;;;25.85;23.25;;;8.50;99.90;;;;;;4942647;29;20027;-89
2023/02/08 12:26:37;;;;;;;28.73;25.65;;;8.30;99.90;;;;;;4943390;29;20030;-91
2023/02/08 12:29:28;;;;;;;27.33;24.52;;;8.30;99.90;;;;;;4958213;29;20042;-91
2023/02/08 12:32:17;;;;;;;29.85;26.60;;;8.70;99.90;;;;;;4957333;28;20039;-90
2023/02/08 12:35:15;;;;;;;29.95;26.67;;;8.70;99.90;;;;;;4939829;29;20020;-90
2023/02/08 12:41:22;;;;;;;31.25;26.77;;;9.40;99.90;;;;;;4937282;29;20055;-90
2023/02/08 12:44:19;;;;;;;27.42;24.75;;;9.20;99.90;;;;;;4943835;29;20042;-90
2023/02/08 12:46:54;;;;;;;31.63;25.83;;;9.00;99.90;;;;;;4885184;29;20044;-92
2023/02/08 12:49:32;;;;;;;28.85;25.75;;;8.80;99.90;;;;;;4896962;29;20594;-92
2023/02/08 12:52:01;;;;;;;28.50;25.52;;;9.00;99.90;;;;;;4897723;29;20056;-90
2023/02/08 12:54:50;;;;;;;29.08;25.90;;;9.10;99.90;;;;;;4897271;29;20045;-90
2023/02/08 12:57:18;;;;;;;29.30;26.25;;;9.00;99.90;;;;;;4878891;29;20049;-91
2023/02/08 13:00:22;;;;;;;29.88;25.63;;;9.40;99.90;;;;;;4898122;29;20032;-91
2023/02/08 13:03:16;;;;;;;28.67;25.70;;;9.30;99.90;;;;;;4880560;29;20041;-91